sensor_id;sensor_type;location;lat;lon;timestamp;temperature;humidity
6468;DHT22;3267;48.794;9.928;2023-04-06T05:58:41;11.20;95.40
6468;DHT22;3267;48.794;9.928;2023-04-06T06:06:01;11.50;94.20
6468;DHT22;3267;48.794;9.928;2023-04-06T06:32:50;8.90;84.60
6468;DHT22;3267;48.794;9.928;2023-04-06T06:40:09;8.70;83.00
6468;DHT22;3267;48.794;9.928;2023-04-06T07:55:58;9.30;73.80
6468;DHT22;3267;48.794;9.928;2023-04-06T08:42:21;10.80;68.70
6468;DHT22;3267;48.794;9.928;2023-04-06T09:01:54;11.40;63.20
6468;DHT22;3267;48.794;9.928;2023-04-06T09:11:46;11.70;58.80
6468;DHT22;3267;48.794;9.928;2023-04-06T09:19:08;11.70;58.30
6468;DHT22;3267;48.794;9.928;2023-04-06T09:21:34;11.70;49.30
6468;DHT22;3267;48.794;9.928;2023-04-06T09:24:02;11.80;50.00
6468;DHT22;3267;48.794;9.928;2023-04-06T09:26:28;11.90;50.30
6468;DHT22;3267;48.794;9.928;2023-04-06T09:28:56;11.90;49.00
6468;DHT22;3267;48.794;9.928;2023-04-06T09:33:48;12.00;48.90
6468;DHT22;3267;48.794;9.928;2023-04-06T09:36:14;12.20;48.80
6468;DHT22;3267;48.794;9.928;2023-04-06T09:38:57;12.20;48.20
6468;DHT22;3267;48.794;9.928;2023-04-06T09:41:31;13.60;50.40
6468;DHT22;3267;48.794;9.928;2023-04-06T09:46:32;12.90;54.90
6468;DHT22;3267;48.794;9.928;2023-04-06T09:48:59;12.90;49.50
6468;DHT22;3267;48.794;9.928;2023-04-06T09:51:26;13.00;50.00
6468;DHT22;3267;48.794;9.928;2023-04-06T09:53:56;13.20;52.60
6468;DHT22;3267;48.794;9.928;2023-04-06T09:56:37;13.30;54.90
6468;DHT22;3267;48.794;9.928;2023-04-06T09:59:08;13.40;53.50
6468;DHT22;3267;48.794;9.928;2023-04-06T10:01:35;15.70;51.00
6468;DHT22;3267;48.794;9.928;2023-04-06T10:06:47;13.60;49.90
6468;DHT22;3267;48.794;9.928;2023-04-06T10:09:18;13.60;49.40
6468;DHT22;3267;48.794;9.928;2023-04-06T10:11:47;13.60;49.20
6468;DHT22;3267;48.794;9.928;2023-04-06T10:14:15;13.70;48.80
6468;DHT22;3267;48.794;9.928;2023-04-06T10:16:48;13.70;45.20
6468;DHT22;3267;48.794;9.928;2023-04-06T10:19:22;13.70;45.80
6468;DHT22;3267;48.794;9.928;2023-04-06T10:21:51;16.20;47.00
6468;DHT22;3267;48.794;9.928;2023-04-06T10:24:18;13.80;57.30
6468;DHT22;3267;48.794;9.928;2023-04-06T10:26:57;13.90;50.30
6468;DHT22;3267;48.794;9.928;2023-04-06T10:31:49;14.00;47.80
6468;DHT22;3267;48.794;9.928;2023-04-06T10:34:15;16.30;49.40
6468;DHT22;3267;48.794;9.928;2023-04-06T10:36:41;14.30;49.20
6468;DHT22;3267;48.794;9.928;2023-04-06T10:39:06;14.40;47.50
6468;DHT22;3267;48.794;9.928;2023-04-06T10:41:33;14.50;53.80
6468;DHT22;3267;48.794;9.928;2023-04-06T10:43:59;14.60;52.60
6468;DHT22;3267;48.794;9.928;2023-04-06T10:46:30;14.80;57.10
6468;DHT22;3267;48.794;9.928;2023-04-06T10:48:56;15.40;69.20
6468;DHT22;3267;48.794;9.928;2023-04-06T10:51:27;15.30;53.70
6468;DHT22;3267;48.794;9.928;2023-04-06T10:56:22;15.40;58.50
6468;DHT22;3267;48.794;9.928;2023-04-06T10:58:51;15.70;64.20
6468;DHT22;3267;48.794;9.928;2023-04-06T11:01:22;15.80;53.70
6468;DHT22;3267;48.794;9.928;2023-04-06T11:03:50;16.00;57.80
6468;DHT22;3267;48.794;9.928;2023-04-06T11:06:22;16.40;80.70
6468;DHT22;3267;48.794;9.928;2023-04-06T11:08:49;16.80;64.10
6468;DHT22;3267;48.794;9.928;2023-04-06T11:11:17;16.70;53.10
6468;DHT22;3267;48.794;9.928;2023-04-06T11:19:03;16.70;51.20
6468;DHT22;3267;48.794;9.928;2023-04-06T11:21:41;16.70;50.90
6468;DHT22;3267;48.794;9.928;2023-04-06T11:26:55;16.70;48.90
6468;DHT22;3267;48.794;9.928;2023-04-06T11:29:24;16.80;49.70
6468;DHT22;3267;48.794;9.928;2023-04-06T11:31:52;16.80;49.00
6468;DHT22;3267;48.794;9.928;2023-04-06T11:34:20;16.90;50.60
6468;DHT22;3267;48.794;9.928;2023-04-06T11:36:47;17.00;48.00
6468;DHT22;3267;48.794;9.928;2023-04-06T11:39:17;16.90;46.20
6468;DHT22;3267;48.794;9.928;2023-04-06T11:41:48;16.90;45.20
6468;DHT22;3267;48.794;9.928;2023-04-06T11:44:14;17.90;47.80
6468;DHT22;3267;48.794;9.928;2023-04-06T11:49:05;17.10;45.90
6468;DHT22;3267;48.794;9.928;2023-04-06T11:51:35;17.10;45.60
6468;DHT22;3267;48.794;9.928;2023-04-06T11:54:01;17.00;43.50
6468;DHT22;3267;48.794;9.928;2023-04-06T11:56:28;17.00;44.70
6468;DHT22;3267;48.794;9.928;2023-04-06T11:58:56;17.00;46.00
6468;DHT22;3267;48.794;9.928;2023-04-06T12:01:22;17.10;46.70
6468;DHT22;3267;48.794;9.928;2023-04-06T12:03:49;17.20;49.40
6468;DHT22;3267;48.794;9.928;2023-04-06T12:06:15;17.50;49.50
6468;DHT22;3267;48.794;9.928;2023-04-06T12:08:41;17.60;47.80
6468;DHT22;3267;48.794;9.928;2023-04-06T12:11:06;17.70;47.70
6468;DHT22;3267;48.794;9.928;2023-04-06T12:13:32;17.80;46.80
6468;DHT22;3267;48.794;9.928;2023-04-06T12:15:58;17.80;45.50
6468;DHT22;3267;48.794;9.928;2023-04-06T12:18:23;17.80;45.00
6468;DHT22;3267;48.794;9.928;2023-04-06T12:20:49;18.30;46.90
6468;DHT22;3267;48.794;9.928;2023-04-06T12:23:15;17.80;43.80
6468;DHT22;3267;48.794;9.928;2023-04-06T12:25:41;17.90;48.80
6468;DHT22;3267;48.794;9.928;2023-04-06T12:28:07;18.20;48.00
6468;DHT22;3267;48.794;9.928;2023-04-06T12:30:33;18.30;45.20
6468;DHT22;3267;48.794;9.928;2023-04-06T12:32:59;18.20;41.90
6468;DHT22;3267;48.794;9.928;2023-04-06T12:35:25;20.60;44.40
6468;DHT22;3267;48.794;9.928;2023-04-06T13:04:48;18.70;40.10
6468;DHT22;3267;48.794;9.928;2023-04-06T13:07:14;18.70;42.70
6468;DHT22;3267;48.794;9.928;2023-04-06T13:09:40;18.80;40.40
6468;DHT22;3267;48.794;9.928;2023-04-06T13:12:05;18.90;43.40
6468;DHT22;3267;48.794;9.928;2023-04-06T13:14:31;19.00;42.80
6468;DHT22;3267;48.794;9.928;2023-04-06T13:16:57;19.20;42.60
6468;DHT22;3267;48.794;9.928;2023-04-06T13:19:23;19.40;42.80
6468;DHT22;3267;48.794;9.928;2023-04-06T13:21:48;20.60;43.30
6468;DHT22;3267;48.794;9.928;2023-04-06T13:24:14;19.80;43.20
6468;DHT22;3267;48.794;9.928;2023-04-06T13:26:40;20.70;43.30
6468;DHT22;3267;48.794;9.928;2023-04-06T13:29:06;21.00;41.70
6468;DHT22;3267;48.794;9.928;2023-04-06T13:31:31;20.20;40.80
6468;DHT22;3267;48.794;9.928;2023-04-06T13:33:57;20.30;39.70
6468;DHT22;3267;48.794;9.928;2023-04-06T13:36:23;22.90;43.90
6468;DHT22;3267;48.794;9.928;2023-04-06T13:38:48;21.40;40.90
6468;DHT22;3267;48.794;9.928;2023-04-06T13:41:22;22.90;41.80
6468;DHT22;3267;48.794;9.928;2023-04-06T13:43:48;21.30;40.60
6468;DHT22;3267;48.794;9.928;2023-04-06T13:46:15;21.70;41.80
6468;DHT22;3267;48.794;9.928;2023-04-06T13:48:42;22.70;39.70
6468;DHT22;3267;48.794;9.928;2023-04-06T13:51:12;22.20;38.50
6468;DHT22;3267;48.794;9.928;2023-04-06T13:53:39;22.50;38.00
6468;DHT22;3267;48.794;9.928;2023-04-06T13:56:05;22.60;37.70
6468;DHT22;3267;48.794;9.928;2023-04-06T13:58:32;22.70;37.80
6468;DHT22;3267;48.794;9.928;2023-04-06T14:01:07;23.00;36.60
6468;DHT22;3267;48.794;9.928;2023-04-06T14:03:35;22.80;37.00
6468;DHT22;3267;48.794;9.928;2023-04-06T14:06:09;22.80;37.90
6468;DHT22;3267;48.794;9.928;2023-04-06T14:08:35;22.80;38.80
6468;DHT22;3267;48.794;9.928;2023-04-06T14:11:01;24.50;40.00
6468;DHT22;3267;48.794;9.928;2023-04-06T14:13:26;23.20;38.30
6468;DHT22;3267;48.794;9.928;2023-04-06T14:15:54;23.30;38.00
6468;DHT22;3267;48.794;9.928;2023-04-06T14:18:21;25.30;38.20
6468;DHT22;3267;48.794;9.928;2023-04-06T14:20:56;23.40;38.10
6468;DHT22;3267;48.794;9.928;2023-04-06T14:23:23;24.50;37.30
6468;DHT22;3267;48.794;9.928;2023-04-06T14:25:51;23.50;37.80
6468;DHT22;3267;48.794;9.928;2023-04-06T14:28:17;23.80;38.00
6468;DHT22;3267;48.794;9.928;2023-04-06T14:30:44;24.10;37.50
6468;DHT22;3267;48.794;9.928;2023-04-06T14:33:10;24.30;37.90
6468;DHT22;3267;48.794;9.928;2023-04-06T14:35:39;24.50;39.10
6468;DHT22;3267;48.794;9.928;2023-04-06T14:38:05;26.70;39.60
6468;DHT22;3267;48.794;9.928;2023-04-06T14:40:33;25.20;36.90
6468;DHT22;3267;48.794;9.928;2023-04-06T14:42:59;25.00;37.50
6468;DHT22;3267;48.794;9.928;2023-04-06T14:45:25;25.10;38.00
6468;DHT22;3267;48.794;9.928;2023-04-06T14:47:50;25.30;37.40
6468;DHT22;3267;48.794;9.928;2023-04-06T14:50:16;25.80;36.50
6468;DHT22;3267;48.794;9.928;2023-04-06T14:52:42;25.50;36.50
6468;DHT22;3267;48.794;9.928;2023-04-06T14:55:07;26.70;38.20
6468;DHT22;3267;48.794;9.928;2023-04-06T14:57:33;25.70;36.60
6468;DHT22;3267;48.794;9.928;2023-04-06T14:59:59;26.70;37.80
6468;DHT22;3267;48.794;9.928;2023-04-06T15:02:24;26.70;37.70
6468;DHT22;3267;48.794;9.928;2023-04-06T15:04:50;25.70;35.70
6468;DHT22;3267;48.794;9.928;2023-04-06T15:07:16;25.70;36.70
6468;DHT22;3267;48.794;9.928;2023-04-06T15:09:42;26.50;37.20
6468;DHT22;3267;48.794;9.928;2023-04-06T15:12:07;25.60;35.20
6468;DHT22;3267;48.794;9.928;2023-04-06T15:14:33;25.70;36.30
6468;DHT22;3267;48.794;9.928;2023-04-06T15:16:58;25.70;35.70
6468;DHT22;3267;48.794;9.928;2023-04-06T15:19:24;28.30;40.00
6468;DHT22;3267;48.794;9.928;2023-04-06T15:21:50;26.10;37.70
6468;DHT22;3267;48.794;9.928;2023-04-06T15:24:15;26.50;37.70
6468;DHT22;3267;48.794;9.928;2023-04-06T15:26:41;27.10;38.20
6468;DHT22;3267;48.794;9.928;2023-04-06T15:29:06;27.30;38.20
6468;DHT22;3267;48.794;9.928;2023-04-06T15:31:32;26.90;37.00
6468;DHT22;3267;48.794;9.928;2023-04-06T15:33:59;26.90;37.70
6468;DHT22;3267;48.794;9.928;2023-04-06T15:36:27;26.80;35.90
6468;DHT22;3267;48.794;9.928;2023-04-06T15:38:59;28.50;36.00
6468;DHT22;3267;48.794;9.928;2023-04-06T15:41:25;26.80;34.90
6468;DHT22;3267;48.794;9.928;2023-04-06T15:43:52;26.50;34.60
6468;DHT22;3267;48.794;9.928;2023-04-06T15:46:18;25.30;35.20
6468;DHT22;3267;48.794;9.928;2023-04-06T15:48:44;25.10;36.50
6468;DHT22;3267;48.794;9.928;2023-04-06T15:51:10;24.70;36.60
6468;DHT22;3267;48.794;9.928;2023-04-06T15:53:36;23.80;36.50
6468;DHT22;3267;48.794;9.928;2023-04-06T15:56:02;24.10;38.30
6468;DHT22;3267;48.794;9.928;2023-04-06T15:58:29;23.10;37.90
6468;DHT22;3267;48.794;9.928;2023-04-06T16:01:14;22.80;38.80
6468;DHT22;3267;48.794;9.928;2023-04-06T16:03:40;22.60;39.70
6468;DHT22;3267;48.794;9.928;2023-04-06T16:06:06;22.30;37.90
6468;DHT22;3267;48.794;9.928;2023-04-06T16:08:35;22.10;38.20
6468;DHT22;3267;48.794;9.928;2023-04-06T16:11:01;21.80;38.40
6468;DHT22;3267;48.794;9.928;2023-04-06T16:13:27;22.80;39.60
6468;DHT22;3267;48.794;9.928;2023-04-06T16:15:52;21.40;38.30
6468;DHT22;3267;48.794;9.928;2023-04-06T16:18:18;21.10;38.40
6468;DHT22;3267;48.794;9.928;2023-04-06T16:20:44;21.00;38.20
6468;DHT22;3267;48.794;9.928;2023-04-06T16:23:10;22.90;40.10
6468;DHT22;3267;48.794;9.928;2023-04-06T16:25:37;20.70;38.60
6468;DHT22;3267;48.794;9.928;2023-04-06T16:28:03;20.50;38.40
6468;DHT22;3267;48.794;9.928;2023-04-06T16:30:29;20.40;38.80
6468;DHT22;3267;48.794;9.928;2023-04-06T16:32:56;20.40;38.90
6468;DHT22;3267;48.794;9.928;2023-04-06T16:35:22;20.30;39.30
6468;DHT22;3267;48.794;9.928;2023-04-06T16:37:48;20.20;38.60
6468;DHT22;3267;48.794;9.928;2023-04-06T16:40:14;20.20;39.20
6468;DHT22;3267;48.794;9.928;2023-04-06T16:42:44;20.00;39.50
6468;DHT22;3267;48.794;9.928;2023-04-06T16:45:11;19.90;38.50
6468;DHT22;3267;48.794;9.928;2023-04-06T16:47:37;19.80;39.80
6468;DHT22;3267;48.794;9.928;2023-04-06T16:50:04;20.70;40.90
6468;DHT22;3267;48.794;9.928;2023-04-06T16:52:30;19.70;41.10
6468;DHT22;3267;48.794;9.928;2023-04-06T16:54:55;21.10;43.10
6468;DHT22;3267;48.794;9.928;2023-04-06T16:57:21;19.50;40.10
6468;DHT22;3267;48.794;9.928;2023-04-06T16:59:49;19.40;40.40
6468;DHT22;3267;48.794;9.928;2023-04-06T17:02:18;20.00;40.80
6468;DHT22;3267;48.794;9.928;2023-04-06T17:04:43;19.60;40.60
6468;DHT22;3267;48.794;9.928;2023-04-06T17:07:09;21.20;42.90
6468;DHT22;3267;48.794;9.928;2023-04-06T17:09:35;19.60;42.10
6468;DHT22;3267;48.794;9.928;2023-04-06T17:12:01;18.90;41.70
6468;DHT22;3267;48.794;9.928;2023-04-06T17:14:26;18.80;41.50
6468;DHT22;3267;48.794;9.928;2023-04-06T17:16:52;18.70;41.40
6468;DHT22;3267;48.794;9.928;2023-04-06T17:19:18;18.60;41.50
6468;DHT22;3267;48.794;9.928;2023-04-06T17:21:43;18.50;42.20
6468;DHT22;3267;48.794;9.928;2023-04-06T17:24:10;18.40;42.80
6468;DHT22;3267;48.794;9.928;2023-04-06T17:26:36;18.30;42.80
6468;DHT22;3267;48.794;9.928;2023-04-06T17:29:03;18.10;42.30
6468;DHT22;3267;48.794;9.928;2023-04-06T17:31:29;18.00;41.30
6468;DHT22;3267;48.794;9.928;2023-04-06T17:33:55;17.80;41.60
6468;DHT22;3267;48.794;9.928;2023-04-06T17:36:21;17.70;42.40
6468;DHT22;3267;48.794;9.928;2023-04-06T17:38:46;17.60;42.30
6468;DHT22;3267;48.794;9.928;2023-04-06T17:41:15;20.80;44.30
6468;DHT22;3267;48.794;9.928;2023-04-06T17:43:41;17.50;42.40
6468;DHT22;3267;48.794;9.928;2023-04-06T17:46:06;17.50;42.30
6468;DHT22;3267;48.794;9.928;2023-04-06T17:48:32;17.30;41.90
6468;DHT22;3267;48.794;9.928;2023-04-06T17:50:58;17.20;42.00
6468;DHT22;3267;48.794;9.928;2023-04-06T17:53:24;17.10;42.10
6468;DHT22;3267;48.794;9.928;2023-04-06T17:55:50;17.00;42.30
6468;DHT22;3267;48.794;9.928;2023-04-06T17:58:18;16.90;42.50
6468;DHT22;3267;48.794;9.928;2023-04-06T18:00:44;16.90;44.20
6468;DHT22;3267;48.794;9.928;2023-04-06T18:03:10;16.90;44.40
6468;DHT22;3267;48.794;9.928;2023-04-06T18:05:36;19.00;46.10
6468;DHT22;3267;48.794;9.928;2023-04-06T18:08:01;16.80;44.70
6468;DHT22;3267;48.794;9.928;2023-04-06T18:10:27;16.80;45.20
6468;DHT22;3267;48.794;9.928;2023-04-06T18:12:53;16.70;44.40
6468;DHT22;3267;48.794;9.928;2023-04-06T18:15:18;16.70;44.30
6468;DHT22;3267;48.794;9.928;2023-04-06T18:17:44;18.40;46.90
6468;DHT22;3267;48.794;9.928;2023-04-06T18:20:11;16.70;46.20
6468;DHT22;3267;48.794;9.928;2023-04-06T18:22:37;16.70;46.20
6468;DHT22;3267;48.794;9.928;2023-04-06T18:25:03;16.70;45.80
6468;DHT22;3267;48.794;9.928;2023-04-06T18:27:30;16.50;44.90
6468;DHT22;3267;48.794;9.928;2023-04-06T18:29:55;16.40;44.40
6468;DHT22;3267;48.794;9.928;2023-04-06T18:32:21;16.40;44.70
6468;DHT22;3267;48.794;9.928;2023-04-06T18:34:47;16.30;44.20
6468;DHT22;3267;48.794;9.928;2023-04-06T18:37:12;16.20;44.10
6468;DHT22;3267;48.794;9.928;2023-04-06T18:39:38;16.10;42.50
6468;DHT22;3267;48.794;9.928;2023-04-06T18:42:06;16.00;43.20
6468;DHT22;3267;48.794;9.928;2023-04-06T18:44:32;15.90;43.50
6468;DHT22;3267;48.794;9.928;2023-04-06T18:46:58;16.80;43.40
6468;DHT22;3267;48.794;9.928;2023-04-06T18:49:24;15.70;41.80
6468;DHT22;3267;48.794;9.928;2023-04-06T18:51:49;15.60;41.20
6468;DHT22;3267;48.794;9.928;2023-04-06T18:54:15;15.50;40.80
6468;DHT22;3267;48.794;9.928;2023-04-06T18:56:41;15.40;40.80
6468;DHT22;3267;48.794;9.928;2023-04-06T18:59:07;15.30;40.90
6468;DHT22;3267;48.794;9.928;2023-04-06T19:01:33;15.30;41.00
6468;DHT22;3267;48.794;9.928;2023-04-06T19:03:59;15.90;41.30
6468;DHT22;3267;48.794;9.928;2023-04-06T19:06:25;15.20;41.20
6468;DHT22;3267;48.794;9.928;2023-04-06T19:08:54;17.90;43.30
6468;DHT22;3267;48.794;9.928;2023-04-06T19:11:19;15.10;40.90
6468;DHT22;3267;48.794;9.928;2023-04-06T19:13:47;15.00;41.20
6468;DHT22;3267;48.794;9.928;2023-04-06T19:16:16;15.10;41.60
6468;DHT22;3267;48.794;9.928;2023-04-06T19:18:42;16.20;42.20
6468;DHT22;3267;48.794;9.928;2023-04-06T19:21:20;15.00;41.10
6468;DHT22;3267;48.794;9.928;2023-04-06T19:23:49;14.90;40.80
6468;DHT22;3267;48.794;9.928;2023-04-06T19:26:16;14.70;40.60
6468;DHT22;3267;48.794;9.928;2023-04-06T19:28:42;14.80;40.80
6468;DHT22;3267;48.794;9.928;2023-04-06T19:31:09;14.70;41.20
6468;DHT22;3267;48.794;9.928;2023-04-06T19:33:36;14.70;41.80
6468;DHT22;3267;48.794;9.928;2023-04-06T19:36:03;17.70;43.90
6468;DHT22;3267;48.794;9.928;2023-04-06T19:38:30;14.50;41.30
6468;DHT22;3267;48.794;9.928;2023-04-06T19:40:57;14.50;41.60
6468;DHT22;3267;48.794;9.928;2023-04-06T19:43:23;14.50;41.60
6468;DHT22;3267;48.794;9.928;2023-04-06T19:45:48;14.40;41.60
6468;DHT22;3267;48.794;9.928;2023-04-06T19:48:14;14.50;42.60
6468;DHT22;3267;48.794;9.928;2023-04-06T19:50:40;14.70;45.00
6468;DHT22;3267;48.794;9.928;2023-04-06T19:53:05;14.80;45.00
6468;DHT22;3267;48.794;9.928;2023-04-06T19:55:34;15.60;45.40
6468;DHT22;3267;48.794;9.928;2023-04-06T19:58:00;14.80;45.10
6468;DHT22;3267;48.794;9.928;2023-04-06T20:00:26;14.90;45.20
6468;DHT22;3267;48.794;9.928;2023-04-06T20:02:52;14.80;44.00
6468;DHT22;3267;48.794;9.928;2023-04-06T20:05:17;14.50;41.70
6468;DHT22;3267;48.794;9.928;2023-04-06T20:07:43;14.40;41.70
6468;DHT22;3267;48.794;9.928;2023-04-06T20:10:09;14.30;42.50
6468;DHT22;3267;48.794;9.928;2023-04-06T20:12:35;14.30;41.80
6468;DHT22;3267;48.794;9.928;2023-04-06T20:15:00;14.20;41.80
6468;DHT22;3267;48.794;9.928;2023-04-06T20:17:26;14.10;41.70
6468;DHT22;3267;48.794;9.928;2023-04-06T20:19:51;15.80;42.70
6468;DHT22;3267;48.794;9.928;2023-04-06T20:22:18;14.00;41.50
6468;DHT22;3267;48.794;9.928;2023-04-06T20:24:44;14.00;42.10
6468;DHT22;3267;48.794;9.928;2023-04-06T20:27:10;14.00;41.60
6468;DHT22;3267;48.794;9.928;2023-04-06T20:29:36;15.80;43.10
6468;DHT22;3267;48.794;9.928;2023-04-06T20:32:04;14.00;42.30
6468;DHT22;3267;48.794;9.928;2023-04-06T20:34:42;14.00;41.00
6468;DHT22;3267;48.794;9.928;2023-04-06T20:37:07;13.90;41.40
6468;DHT22;3267;48.794;9.928;2023-04-06T20:39:33;13.90;41.60
6468;DHT22;3267;48.794;9.928;2023-04-06T20:42:00;14.00;41.90
6468;DHT22;3267;48.794;9.928;2023-04-06T20:44:26;14.00;42.40
6468;DHT22;3267;48.794;9.928;2023-04-06T20:46:52;14.00;41.70
6468;DHT22;3267;48.794;9.928;2023-04-06T20:49:18;14.00;42.20
6468;DHT22;3267;48.794;9.928;2023-04-06T20:51:48;14.00;41.70
6468;DHT22;3267;48.794;9.928;2023-04-06T20:54:13;13.90;41.30
6468;DHT22;3267;48.794;9.928;2023-04-06T20:56:39;13.90;41.10
6468;DHT22;3267;48.794;9.928;2023-04-06T20:59:04;13.90;41.10
6468;DHT22;3267;48.794;9.928;2023-04-06T21:01:30;13.90;41.00
6468;DHT22;3267;48.794;9.928;2023-04-06T21:03:56;13.80;40.90
6468;DHT22;3267;48.794;9.928;2023-04-06T21:06:25;13.80;41.20
6468;DHT22;3267;48.794;9.928;2023-04-06T21:08:52;13.80;41.00
6468;DHT22;3267;48.794;9.928;2023-04-06T21:11:17;13.80;41.40
6468;DHT22;3267;48.794;9.928;2023-04-06T21:13:43;13.80;41.20
6468;DHT22;3267;48.794;9.928;2023-04-06T21:16:09;13.70;41.20
6468;DHT22;3267;48.794;9.928;2023-04-06T21:18:35;13.70;41.30
6468;DHT22;3267;48.794;9.928;2023-04-06T21:21:00;13.70;41.60
6468;DHT22;3267;48.794;9.928;2023-04-06T21:23:26;13.70;41.50
6468;DHT22;3267;48.794;9.928;2023-04-06T21:25:52;13.70;41.50
6468;DHT22;3267;48.794;9.928;2023-04-06T21:28:24;13.60;42.00
